Hlavní strana
METAR-TAF:

METAR-TAF

Letiště :

Islámábád, Pákistán

zeměpisná šířka: 33-37N, zeměpisná délka: 073-06E, výška: 507 m

Aktuální stav počasí

Zpráva byla vytvořena před 24 minutami, v 07:00 UTC
Bezvětří
Teplota 19°C
Vlhkost vzduchu 40%
Tlak 1016 hPa
Viditelnost: 4000 m
zákal

METAR: OPRN 200700Z 00000KT 4000 HZ NSC 19/05 Q1016 A30.02 NOSIG

Čas: 12:24 (07:24 UTC)

Předpověď počasí

Zpráva byla vytvořena před 3 hodinami a 54 minutami, v 03:30 UTC
Předpověď platná od 20 v 06 UTC do 21 v 12 UTC
Západoseverozápadní vítr 10 kt
Viditelnost: 2000 m
zákal
Změna
od 20 v 07 UTC do 20 v 08 UTC
Západojihozápadní vítr 10 kt s nárazy do 20 kt
Viditelnost: 6000 m
Změna
od 20 v 12 UTC do 20 v 14 UTC
Západoseverozápadní vítr 10 kt
Viditelnost: 4000 m
zákal
Dočasný
od 21 v 02 UTC do 21 v 06 UTC
Viditelnost: 2000 m

TAF: OPRN 200330Z 2006/2112 30010KT 2000 HZ BECMG 2007/2008 24010G20KT 6000 BECMG 2012/2014 30010KT 4000 HZ TEMPO 2102/2106 2000

Stav a předpovědi počasí z více než 4 000 letišť (zprávy METAR a TAF).

Červené a žluté tečky na mapě představují dostupné meteorologické stanice.

Když kurzor umístíte na tečku, zobrazí se název stanice.

Pak kliknutím zobrazíte stav a předpověď počasí.

Chcete-li změnit mapu, kliknutím na zelené tlačítko se znaménkem +mapu přiblížíte, kliknutím na zelené tlačítko se znaménkem – mapu oddálíte a kliknutím na zelené šipky přejdete na sousední mapy.


METAR-TAF: